sensor_id;sensor_type;location;lat;lon;timestamp;temperature;humidity
10046;DHT22;5063;50.878;4.742;2022-12-07T00:03:46;6.00;99.90
10046;DHT22;5063;50.878;4.742;2022-12-07T00:06:13;6.10;99.90
10046;DHT22;5063;50.878;4.742;2022-12-07T00:08:39;5.90;99.90
10046;DHT22;5063;50.878;4.742;2022-12-07T00:11:09;5.80;99.90
10046;DHT22;5063;50.878;4.742;2022-12-07T00:13:35;5.80;99.90
10046;DHT22;5063;50.878;4.742;2022-12-07T00:16:15;5.90;99.90
10046;DHT22;5063;50.878;4.742;2022-12-07T00:18:42;5.80;99.90
10046;DHT22;5063;50.878;4.742;2022-12-07T00:21:13;6.00;99.90
10046;DHT22;5063;50.878;4.742;2022-12-07T00:23:40;5.90;99.90
10046;DHT22;5063;50.878;4.742;2022-12-07T00:26:08;6.10;99.90
10046;DHT22;5063;50.878;4.742;2022-12-07T00:28:34;6.10;99.90
10046;DHT22;5063;50.878;4.742;2022-12-07T00:31:06;6.10;99.90
10046;DHT22;5063;50.878;4.742;2022-12-07T00:33:33;6.30;99.90
10046;DHT22;5063;50.878;4.742;2022-12-07T00:36:00;6.30;99.90
10046;DHT22;5063;50.878;4.742;2022-12-07T00:38:29;6.30;99.90
10046;DHT22;5063;50.878;4.742;2022-12-07T00:41:00;6.00;99.90
10046;DHT22;5063;50.878;4.742;2022-12-07T00:43:27;6.00;99.90
10046;DHT22;5063;50.878;4.742;2022-12-07T00:45:53;6.00;99.90
10046;DHT22;5063;50.878;4.742;2022-12-07T00:48:19;5.90;99.90
10046;DHT22;5063;50.878;4.742;2022-12-07T00:50:45;6.10;99.90
10046;DHT22;5063;50.878;4.742;2022-12-07T00:53:11;5.90;99.90
10046;DHT22;5063;50.878;4.742;2022-12-07T00:55:37;6.10;99.90
10046;DHT22;5063;50.878;4.742;2022-12-07T00:58:03;6.00;99.90
10046;DHT22;5063;50.878;4.742;2022-12-07T01:00:29;6.10;99.90
10046;DHT22;5063;50.878;4.742;2022-12-07T01:02:55;6.20;99.90
10046;DHT22;5063;50.878;4.742;2022-12-07T01:05:20;6.30;99.90
10046;DHT22;5063;50.878;4.742;2022-12-07T01:07:46;6.10;99.90
10046;DHT22;5063;50.878;4.742;2022-12-07T01:10:13;6.50;99.90
10046;DHT22;5063;50.878;4.742;2022-12-07T01:12:39;6.10;99.90
10046;DHT22;5063;50.878;4.742;2022-12-07T01:15:05;6.20;99.90
10046;DHT22;5063;50.878;4.742;2022-12-07T01:17:32;6.20;99.90
10046;DHT22;5063;50.878;4.742;2022-12-07T01:19:57;6.10;99.90
10046;DHT22;5063;50.878;4.742;2022-12-07T01:22:23;6.10;99.90
10046;DHT22;5063;50.878;4.742;2022-12-07T01:24:49;6.00;99.90
10046;DHT22;5063;50.878;4.742;2022-12-07T01:27:14;5.90;99.90
10046;DHT22;5063;50.878;4.742;2022-12-07T01:29:40;5.80;99.90
10046;DHT22;5063;50.878;4.742;2022-12-07T01:32:06;5.70;99.90
10046;DHT22;5063;50.878;4.742;2022-12-07T01:34:32;5.60;99.90
10046;DHT22;5063;50.878;4.742;2022-12-07T01:36:58;5.70;99.90
10046;DHT22;5063;50.878;4.742;2022-12-07T01:39:24;5.60;99.90
10046;DHT22;5063;50.878;4.742;2022-12-07T01:41:50;5.70;99.90
10046;DHT22;5063;50.878;4.742;2022-12-07T01:44:22;5.70;99.90
10046;DHT22;5063;50.878;4.742;2022-12-07T01:46:59;5.70;99.90
10046;DHT22;5063;50.878;4.742;2022-12-07T01:49:33;5.60;99.90
10046;DHT22;5063;50.878;4.742;2022-12-07T01:52:23;6.00;99.90
10046;DHT22;5063;50.878;4.742;2022-12-07T01:54:54;5.90;99.90
10046;DHT22;5063;50.878;4.742;2022-12-07T01:57:21;5.90;99.90
10046;DHT22;5063;50.878;4.742;2022-12-07T01:59:49;6.10;99.90
10046;DHT22;5063;50.878;4.742;2022-12-07T02:02:30;6.00;99.90
10046;DHT22;5063;50.878;4.742;2022-12-07T02:04:59;6.00;99.90
10046;DHT22;5063;50.878;4.742;2022-12-07T02:07:25;6.10;99.90
10046;DHT22;5063;50.878;4.742;2022-12-07T02:09:52;6.10;99.90
10046;DHT22;5063;50.878;4.742;2022-12-07T02:12:19;6.10;99.90
10046;DHT22;5063;50.878;4.742;2022-12-07T02:14:45;6.20;99.90
10046;DHT22;5063;50.878;4.742;2022-12-07T02:17:17;6.20;99.90
10046;DHT22;5063;50.878;4.742;2022-12-07T02:22:54;6.10;99.90
10046;DHT22;5063;50.878;4.742;2022-12-07T02:28:22;6.00;99.90
10046;DHT22;5063;50.878;4.742;2022-12-07T02:30:52;6.10;99.90
10046;DHT22;5063;50.878;4.742;2022-12-07T02:33:49;5.80;99.90
10046;DHT22;5063;50.878;4.742;2022-12-07T02:36:42;5.50;99.90
10046;DHT22;5063;50.878;4.742;2022-12-07T02:39:15;5.70;99.90
10046;DHT22;5063;50.878;4.742;2022-12-07T02:41:51;5.00;99.90
10046;DHT22;5063;50.878;4.742;2022-12-07T02:44:20;5.60;99.90
10046;DHT22;5063;50.878;4.742;2022-12-07T02:46:54;5.70;99.90
10046;DHT22;5063;50.878;4.742;2022-12-07T02:49:25;5.70;99.90
10046;DHT22;5063;50.878;4.742;2022-12-07T02:51:52;5.30;99.90
10046;DHT22;5063;50.878;4.742;2022-12-07T02:54:19;6.00;99.90
10046;DHT22;5063;50.878;4.742;2022-12-07T03:13:11;5.90;99.90
10046;DHT22;5063;50.878;4.742;2022-12-07T03:15:45;5.90;99.90
10046;DHT22;5063;50.878;4.742;2022-12-07T03:18:13;6.00;99.90
10046;DHT22;5063;50.878;4.742;2022-12-07T03:20:41;5.90;99.90
10046;DHT22;5063;50.878;4.742;2022-12-07T03:23:10;5.90;99.90
10046;DHT22;5063;50.878;4.742;2022-12-07T03:25:42;5.80;99.90
10046;DHT22;5063;50.878;4.742;2022-12-07T03:28:12;5.10;99.90
10046;DHT22;5063;50.878;4.742;2022-12-07T03:30:44;5.70;99.90
10046;DHT22;5063;50.878;4.742;2022-12-07T03:33:22;5.70;99.90
10046;DHT22;5063;50.878;4.742;2022-12-07T03:38:32;5.70;99.90
10046;DHT22;5063;50.878;4.742;2022-12-07T03:41:09;5.60;99.90
10046;DHT22;5063;50.878;4.742;2022-12-07T03:43:37;5.60;99.90
10046;DHT22;5063;50.878;4.742;2022-12-07T03:49:13;5.60;99.90
10046;DHT22;5063;50.878;4.742;2022-12-07T03:54:39;5.90;99.90
10046;DHT22;5063;50.878;4.742;2022-12-07T03:57:08;5.80;99.90
10046;DHT22;5063;50.878;4.742;2022-12-07T03:59:34;5.90;99.90
10046;DHT22;5063;50.878;4.742;2022-12-07T04:02:03;5.90;99.90
10046;DHT22;5063;50.878;4.742;2022-12-07T04:04:30;5.90;99.90
10046;DHT22;5063;50.878;4.742;2022-12-07T04:06:56;6.10;99.90
10046;DHT22;5063;50.878;4.742;2022-12-07T04:09:21;5.80;99.90
10046;DHT22;5063;50.878;4.742;2022-12-07T04:11:47;5.90;99.90
10046;DHT22;5063;50.878;4.742;2022-12-07T04:14:13;5.90;99.90
10046;DHT22;5063;50.878;4.742;2022-12-07T04:16:46;5.90;99.90
10046;DHT22;5063;50.878;4.742;2022-12-07T04:19:12;5.80;99.90
10046;DHT22;5063;50.878;4.742;2022-12-07T04:21:39;5.20;99.90
10046;DHT22;5063;50.878;4.742;2022-12-07T04:24:05;5.40;99.90
10046;DHT22;5063;50.878;4.742;2022-12-07T04:26:31;5.20;99.90
10046;DHT22;5063;50.878;4.742;2022-12-07T04:28:57;5.10;99.90
10046;DHT22;5063;50.878;4.742;2022-12-07T04:31:22;4.80;99.90
10046;DHT22;5063;50.878;4.742;2022-12-07T04:33:48;4.20;99.90
10046;DHT22;5063;50.878;4.742;2022-12-07T04:36:14;4.50;99.90
10046;DHT22;5063;50.878;4.742;2022-12-07T04:38:39;4.40;99.90
10046;DHT22;5063;50.878;4.742;2022-12-07T04:41:06;4.20;99.90
10046;DHT22;5063;50.878;4.742;2022-12-07T04:43:32;4.10;99.90
10046;DHT22;5063;50.878;4.742;2022-12-07T04:45:58;3.60;99.90
10046;DHT22;5063;50.878;4.742;2022-12-07T04:48:24;4.20;99.90
10046;DHT22;5063;50.878;4.742;2022-12-07T04:50:49;4.10;99.90
10046;DHT22;5063;50.878;4.742;2022-12-07T04:53:16;4.20;99.90
10046;DHT22;5063;50.878;4.742;2022-12-07T04:55:42;4.30;99.90
10046;DHT22;5063;50.878;4.742;2022-12-07T04:58:08;4.50;99.90
10046;DHT22;5063;50.878;4.742;2022-12-07T05:00:33;4.70;99.90
10046;DHT22;5063;50.878;4.742;2022-12-07T05:02:59;4.60;99.90
10046;DHT22;5063;50.878;4.742;2022-12-07T05:05:25;4.70;99.90
10046;DHT22;5063;50.878;4.742;2022-12-07T05:07:50;4.60;99.90
10046;DHT22;5063;50.878;4.742;2022-12-07T05:10:16;4.50;99.90
10046;DHT22;5063;50.878;4.742;2022-12-07T05:12:42;4.60;99.90
10046;DHT22;5063;50.878;4.742;2022-12-07T05:15:08;4.20;99.90
10046;DHT22;5063;50.878;4.742;2022-12-07T05:17:34;4.10;99.90
10046;DHT22;5063;50.878;4.742;2022-12-07T05:19:59;4.10;99.90
10046;DHT22;5063;50.878;4.742;2022-12-07T05:22:25;4.10;99.90
10046;DHT22;5063;50.878;4.742;2022-12-07T05:24:56;4.10;99.90
10046;DHT22;5063;50.878;4.742;2022-12-07T05:27:22;4.10;99.90
10046;DHT22;5063;50.878;4.742;2022-12-07T05:29:49;4.10;99.90
10046;DHT22;5063;50.878;4.742;2022-12-07T05:32:15;4.40;99.90
10046;DHT22;5063;50.878;4.742;2022-12-07T05:34:41;4.50;99.90
10046;DHT22;5063;50.878;4.742;2022-12-07T05:37:07;5.00;99.90
10046;DHT22;5063;50.878;4.742;2022-12-07T05:39:32;4.80;99.90
10046;DHT22;5063;50.878;4.742;2022-12-07T05:41:58;4.90;99.90
10046;DHT22;5063;50.878;4.742;2022-12-07T05:44:44;5.00;99.90
10046;DHT22;5063;50.878;4.742;2022-12-07T05:47:10;5.10;99.90
10046;DHT22;5063;50.878;4.742;2022-12-07T05:49:36;5.00;99.90
10046;DHT22;5063;50.878;4.742;2022-12-07T05:52:03;5.00;99.90
10046;DHT22;5063;50.878;4.742;2022-12-07T05:54:28;5.30;99.90
10046;DHT22;5063;50.878;4.742;2022-12-07T05:56:54;5.20;99.90
10046;DHT22;5063;50.878;4.742;2022-12-07T05:59:20;5.00;99.90
10046;DHT22;5063;50.878;4.742;2022-12-07T06:01:55;5.10;99.90
10046;DHT22;5063;50.878;4.742;2022-12-07T06:04:22;5.10;99.90
10046;DHT22;5063;50.878;4.742;2022-12-07T06:06:48;5.10;99.90
10046;DHT22;5063;50.878;4.742;2022-12-07T06:09:15;5.20;99.90
10046;DHT22;5063;50.878;4.742;2022-12-07T06:11:41;5.30;99.90
10046;DHT22;5063;50.878;4.742;2022-12-07T06:14:25;5.40;99.90
10046;DHT22;5063;50.878;4.742;2022-12-07T06:16:51;5.30;99.90
10046;DHT22;5063;50.878;4.742;2022-12-07T06:19:17;5.20;99.90
10046;DHT22;5063;50.878;4.742;2022-12-07T06:21:43;5.30;99.90
10046;DHT22;5063;50.878;4.742;2022-12-07T06:24:13;5.30;99.90
10046;DHT22;5063;50.878;4.742;2022-12-07T06:26:40;5.40;99.90
10046;DHT22;5063;50.878;4.742;2022-12-07T06:29:05;5.10;99.90
10046;DHT22;5063;50.878;4.742;2022-12-07T06:31:32;5.30;99.90
10046;DHT22;5063;50.878;4.742;2022-12-07T06:34:02;5.50;99.90
10046;DHT22;5063;50.878;4.742;2022-12-07T06:36:29;5.30;99.90
10046;DHT22;5063;50.878;4.742;2022-12-07T06:38:55;5.30;99.90
10046;DHT22;5063;50.878;4.742;2022-12-07T06:41:20;5.30;99.90
10046;DHT22;5063;50.878;4.742;2022-12-07T06:43:46;5.40;99.90
10046;DHT22;5063;50.878;4.742;2022-12-07T06:46:13;5.60;99.90
10046;DHT22;5063;50.878;4.742;2022-12-07T06:48:39;5.50;99.90
10046;DHT22;5063;50.878;4.742;2022-12-07T06:51:05;5.30;99.90
10046;DHT22;5063;50.878;4.742;2022-12-07T06:53:31;5.40;99.90
10046;DHT22;5063;50.878;4.742;2022-12-07T06:55:56;5.20;99.90
10046;DHT22;5063;50.878;4.742;2022-12-07T06:58:22;5.30;99.90
10046;DHT22;5063;50.878;4.742;2022-12-07T07:00:49;5.10;99.90
10046;DHT22;5063;50.878;4.742;2022-12-07T07:03:16;5.20;99.90
10046;DHT22;5063;50.878;4.742;2022-12-07T07:05:42;5.00;99.90
10046;DHT22;5063;50.878;4.742;2022-12-07T07:08:09;5.10;99.90
10046;DHT22;5063;50.878;4.742;2022-12-07T07:10:35;5.10;99.90
10046;DHT22;5063;50.878;4.742;2022-12-07T07:13:01;5.10;99.90
10046;DHT22;5063;50.878;4.742;2022-12-07T07:15:27;5.10;99.90
10046;DHT22;5063;50.878;4.742;2022-12-07T07:17:53;5.00;99.90
10046;DHT22;5063;50.878;4.742;2022-12-07T07:20:18;5.20;99.90
10046;DHT22;5063;50.878;4.742;2022-12-07T07:22:44;5.30;99.90
10046;DHT22;5063;50.878;4.742;2022-12-07T07:25:10;5.20;99.90
10046;DHT22;5063;50.878;4.742;2022-12-07T07:27:36;5.20;99.90
10046;DHT22;5063;50.878;4.742;2022-12-07T07:30:02;5.70;99.90
10046;DHT22;5063;50.878;4.742;2022-12-07T07:32:28;5.40;99.90
10046;DHT22;5063;50.878;4.742;2022-12-07T07:34:54;5.30;99.90
10046;DHT22;5063;50.878;4.742;2022-12-07T07:37:20;5.30;99.90
10046;DHT22;5063;50.878;4.742;2022-12-07T07:39:45;5.40;99.90
10046;DHT22;5063;50.878;4.742;2022-12-07T07:42:11;5.40;99.90
10046;DHT22;5063;50.878;4.742;2022-12-07T07:44:37;5.40;99.90
10046;DHT22;5063;50.878;4.742;2022-12-07T07:47:02;5.50;99.90
10046;DHT22;5063;50.878;4.742;2022-12-07T07:49:28;5.30;99.90
10046;DHT22;5063;50.878;4.742;2022-12-07T07:51:54;5.30;99.90
10046;DHT22;5063;50.878;4.742;2022-12-07T07:54:20;5.60;99.90
10046;DHT22;5063;50.878;4.742;2022-12-07T07:56:45;5.20;99.90
10046;DHT22;5063;50.878;4.742;2022-12-07T07:59:11;5.10;99.90
10046;DHT22;5063;50.878;4.742;2022-12-07T08:01:37;5.10;99.90
10046;DHT22;5063;50.878;4.742;2022-12-07T08:04:02;5.00;99.90
10046;DHT22;5063;50.878;4.742;2022-12-07T08:06:28;5.00;99.90
10046;DHT22;5063;50.878;4.742;2022-12-07T08:08:54;4.90;99.90
10046;DHT22;5063;50.878;4.742;2022-12-07T08:11:20;4.90;99.90
10046;DHT22;5063;50.878;4.742;2022-12-07T08:13:46;4.70;99.90
10046;DHT22;5063;50.878;4.742;2022-12-07T08:16:13;4.60;99.90
10046;DHT22;5063;50.878;4.742;2022-12-07T08:18:40;4.50;99.90
10046;DHT22;5063;50.878;4.742;2022-12-07T08:21:07;4.40;99.90
10046;DHT22;5063;50.878;4.742;2022-12-07T08:23:34;4.30;99.90
10046;DHT22;5063;50.878;4.742;2022-12-07T08:26:05;4.50;99.90
10046;DHT22;5063;50.878;4.742;2022-12-07T08:28:31;4.60;99.90
10046;DHT22;5063;50.878;4.742;2022-12-07T08:31:07;4.50;99.90
10046;DHT22;5063;50.878;4.742;2022-12-07T08:33:34;4.40;99.90
10046;DHT22;5063;50.878;4.742;2022-12-07T08:36:04;4.80;99.90
10046;DHT22;5063;50.878;4.742;2022-12-07T08:38:31;4.80;99.90
10046;DHT22;5063;50.878;4.742;2022-12-07T08:40:58;4.80;99.90
10046;DHT22;5063;50.878;4.742;2022-12-07T08:43:25;4.90;99.90
10046;DHT22;5063;50.878;4.742;2022-12-07T08:46:03;5.10;99.90
10046;DHT22;5063;50.878;4.742;2022-12-07T08:48:32;5.20;99.90
10046;DHT22;5063;50.878;4.742;2022-12-07T08:50:58;5.40;99.90
10046;DHT22;5063;50.878;4.742;2022-12-07T08:53:24;5.70;99.90
10046;DHT22;5063;50.878;4.742;2022-12-07T08:55:50;5.80;99.90
10046;DHT22;5063;50.878;4.742;2022-12-07T08:58:16;6.00;99.90
10046;DHT22;5063;50.878;4.742;2022-12-07T09:00:41;6.20;99.90
10046;DHT22;5063;50.878;4.742;2022-12-07T09:03:07;6.30;99.90
10046;DHT22;5063;50.878;4.742;2022-12-07T09:05:33;6.40;99.90
10046;DHT22;5063;50.878;4.742;2022-12-07T09:08:01;6.50;99.90
10046;DHT22;5063;50.878;4.742;2022-12-07T09:10:28;6.60;99.90
10046;DHT22;5063;50.878;4.742;2022-12-07T09:12:54;6.80;99.90
10046;DHT22;5063;50.878;4.742;2022-12-07T09:15:19;6.50;99.90
10046;DHT22;5063;50.878;4.742;2022-12-07T09:17:45;6.70;99.90
10046;DHT22;5063;50.878;4.742;2022-12-07T09:20:11;6.70;99.90
10046;DHT22;5063;50.878;4.742;2022-12-07T09:22:37;6.80;99.90
10046;DHT22;5063;50.878;4.742;2022-12-07T09:25:04;6.70;99.90
10046;DHT22;5063;50.878;4.742;2022-12-07T09:27:29;6.70;99.90
10046;DHT22;5063;50.878;4.742;2022-12-07T09:29:55;6.90;99.90
10046;DHT22;5063;50.878;4.742;2022-12-07T09:32:21;7.20;99.90
10046;DHT22;5063;50.878;4.742;2022-12-07T09:34:47;7.10;99.90
10046;DHT22;5063;50.878;4.742;2022-12-07T09:37:12;7.10;99.90
10046;DHT22;5063;50.878;4.742;2022-12-07T09:39:39;7.20;99.90
10046;DHT22;5063;50.878;4.742;2022-12-07T09:42:05;7.20;99.90
10046;DHT22;5063;50.878;4.742;2022-12-07T09:44:33;7.10;99.90
10046;DHT22;5063;50.878;4.742;2022-12-07T09:46:59;7.10;99.90
10046;DHT22;5063;50.878;4.742;2022-12-07T09:49:28;7.40;99.90
10046;DHT22;5063;50.878;4.742;2022-12-07T09:54:44;7.70;99.90
10046;DHT22;5063;50.878;4.742;2022-12-07T09:57:11;8.00;99.90
10046;DHT22;5063;50.878;4.742;2022-12-07T09:59:38;8.10;99.90
10046;DHT22;5063;50.878;4.742;2022-12-07T10:02:37;8.20;99.90
10046;DHT22;5063;50.878;4.742;2022-12-07T10:05:05;8.30;99.90
10046;DHT22;5063;50.878;4.742;2022-12-07T10:07:31;8.30;99.90
10046;DHT22;5063;50.878;4.742;2022-12-07T10:09:57;8.30;99.90
10046;DHT22;5063;50.878;4.742;2022-12-07T10:12:22;8.40;99.90
10046;DHT22;5063;50.878;4.742;2022-12-07T10:14:56;8.40;99.90
10046;DHT22;5063;50.878;4.742;2022-12-07T10:17:48;8.50;99.90
10046;DHT22;5063;50.878;4.742;2022-12-07T10:20:23;8.60;99.90
10046;DHT22;5063;50.878;4.742;2022-12-07T10:23:01;8.70;99.90
10046;DHT22;5063;50.878;4.742;2022-12-07T10:25:30;8.80;99.90
10046;DHT22;5063;50.878;4.742;2022-12-07T10:30:33;8.70;99.90
10046;DHT22;5063;50.878;4.742;2022-12-07T10:36:24;8.40;99.90
10046;DHT22;5063;50.878;4.742;2022-12-07T10:39:02;8.50;99.90
10046;DHT22;5063;50.878;4.742;2022-12-07T10:41:28;8.60;99.90
10046;DHT22;5063;50.878;4.742;2022-12-07T10:43:56;8.70;99.90
10046;DHT22;5063;50.878;4.742;2022-12-07T10:49:53;8.90;99.90
10046;DHT22;5063;50.878;4.742;2022-12-07T11:06:32;9.40;99.90
10046;DHT22;5063;50.878;4.742;2022-12-07T11:17:20;9.20;99.90
10046;DHT22;5063;50.878;4.742;2022-12-07T11:20:04;9.30;99.90
10046;DHT22;5063;50.878;4.742;2022-12-07T11:25:53;8.90;99.90
10046;DHT22;5063;50.878;4.742;2022-12-07T11:39:39;9.00;99.90
10046;DHT22;5063;50.878;4.742;2022-12-07T11:42:20;9.30;99.90
10046;DHT22;5063;50.878;4.742;2022-12-07T11:47:48;9.50;99.90
10046;DHT22;5063;50.878;4.742;2022-12-07T11:50:34;9.50;99.90
10046;DHT22;5063;50.878;4.742;2022-12-07T11:53:25;9.40;99.90
10046;DHT22;5063;50.878;4.742;2022-12-07T11:58:49;9.30;99.90
10046;DHT22;5063;50.878;4.742;2022-12-07T12:06:44;9.30;99.90
10046;DHT22;5063;50.878;4.742;2022-12-07T12:12:10;9.40;99.90
10046;DHT22;5063;50.878;4.742;2022-12-07T12:20:40;9.60;99.90
10046;DHT22;5063;50.878;4.742;2022-12-07T12:23:24;9.60;99.90
10046;DHT22;5063;50.878;4.742;2022-12-07T12:25:57;9.40;99.90
10046;DHT22;5063;50.878;4.742;2022-12-07T12:28:30;9.00;99.90
10046;DHT22;5063;50.878;4.742;2022-12-07T12:33:57;8.80;99.90
10046;DHT22;5063;50.878;4.742;2022-12-07T12:47:04;9.20;99.90
10046;DHT22;5063;50.878;4.742;2022-12-07T12:49:42;9.00;99.90
10046;DHT22;5063;50.878;4.742;2022-12-07T12:55:13;9.00;99.90
10046;DHT22;5063;50.878;4.742;2022-12-07T12:57:42;9.10;99.90
10046;DHT22;5063;50.878;4.742;2022-12-07T13:00:22;9.00;99.90
10046;DHT22;5063;50.878;4.742;2022-12-07T13:02:56;9.00;99.90
10046;DHT22;5063;50.878;4.742;2022-12-07T13:05:31;9.00;99.90
10046;DHT22;5063;50.878;4.742;2022-12-07T13:08:21;9.00;99.90
10046;DHT22;5063;50.878;4.742;2022-12-07T13:10:47;8.90;99.90
10046;DHT22;5063;50.878;4.742;2022-12-07T13:15:41;9.40;99.90
10046;DHT22;5063;50.878;4.742;2022-12-07T13:29:06;10.10;99.90
10046;DHT22;5063;50.878;4.742;2022-12-07T13:31:34;10.10;99.90
10046;DHT22;5063;50.878;4.742;2022-12-07T13:34:01;10.30;99.90
10046;DHT22;5063;50.878;4.742;2022-12-07T13:36:37;10.20;99.90
10046;DHT22;5063;50.878;4.742;2022-12-07T13:39:22;10.10;99.90
10046;DHT22;5063;50.878;4.742;2022-12-07T13:41:53;10.20;99.90
10046;DHT22;5063;50.878;4.742;2022-12-07T13:44:20;10.10;99.90
10046;DHT22;5063;50.878;4.742;2022-12-07T13:49:54;9.70;99.90
10046;DHT22;5063;50.878;4.742;2022-12-07T13:52:27;9.40;99.90
10046;DHT22;5063;50.878;4.742;2022-12-07T13:57:29;9.00;99.90
10046;DHT22;5063;50.878;4.742;2022-12-07T14:00:00;8.80;99.90
10046;DHT22;5063;50.878;4.742;2022-12-07T14:02:29;8.80;99.90
10046;DHT22;5063;50.878;4.742;2022-12-07T14:05:16;8.90;99.90
10046;DHT22;5063;50.878;4.742;2022-12-07T14:08:22;8.90;99.90
10046;DHT22;5063;50.878;4.742;2022-12-07T14:16:00;8.90;99.90
10046;DHT22;5063;50.878;4.742;2022-12-07T14:18:46;8.80;99.90
10046;DHT22;5063;50.878;4.742;2022-12-07T14:21:24;8.90;99.90
10046;DHT22;5063;50.878;4.742;2022-12-07T14:24:18;8.90;99.90
10046;DHT22;5063;50.878;4.742;2022-12-07T14:26:49;8.80;99.90
10046;DHT22;5063;50.878;4.742;2022-12-07T14:31:51;8.70;99.90
10046;DHT22;5063;50.878;4.742;2022-12-07T14:34:23;8.50;99.90
10046;DHT22;5063;50.878;4.742;2022-12-07T14:36:49;8.50;99.90
10046;DHT22;5063;50.878;4.742;2022-12-07T14:39:15;8.40;99.90
10046;DHT22;5063;50.878;4.742;2022-12-07T14:41:40;8.30;99.90
10046;DHT22;5063;50.878;4.742;2022-12-07T14:44:22;8.40;99.90
10046;DHT22;5063;50.878;4.742;2022-12-07T14:46:50;8.30;99.90
10046;DHT22;5063;50.878;4.742;2022-12-07T14:49:17;8.20;99.90
10046;DHT22;5063;50.878;4.742;2022-12-07T14:51:44;7.70;99.90
10046;DHT22;5063;50.878;4.742;2022-12-07T14:54:17;7.40;99.90
10046;DHT22;5063;50.878;4.742;2022-12-07T14:56:43;7.30;99.90
10046;DHT22;5063;50.878;4.742;2022-12-07T14:59:10;7.30;99.90
10046;DHT22;5063;50.878;4.742;2022-12-07T15:01:36;7.40;99.90
10046;DHT22;5063;50.878;4.742;2022-12-07T15:04:02;7.30;99.90
10046;DHT22;5063;50.878;4.742;2022-12-07T15:06:28;7.30;99.90
10046;DHT22;5063;50.878;4.742;2022-12-07T15:08:53;7.40;99.90
10046;DHT22;5063;50.878;4.742;2022-12-07T15:11:20;7.10;99.90
10046;DHT22;5063;50.878;4.742;2022-12-07T15:13:46;7.10;99.90
10046;DHT22;5063;50.878;4.742;2022-12-07T15:16:31;7.30;99.90
10046;DHT22;5063;50.878;4.742;2022-12-07T15:18:57;6.90;99.90
10046;DHT22;5063;50.878;4.742;2022-12-07T15:21:22;7.10;99.90
10046;DHT22;5063;50.878;4.742;2022-12-07T15:23:48;6.90;99.90
10046;DHT22;5063;50.878;4.742;2022-12-07T15:26:14;6.90;99.90
10046;DHT22;5063;50.878;4.742;2022-12-07T15:28:41;7.00;99.90
10046;DHT22;5063;50.878;4.742;2022-12-07T15:31:16;6.80;99.90
10046;DHT22;5063;50.878;4.742;2022-12-07T15:33:43;6.50;99.90
10046;DHT22;5063;50.878;4.742;2022-12-07T15:36:22;6.40;99.90
10046;DHT22;5063;50.878;4.742;2022-12-07T15:38:49;6.30;99.90
10046;DHT22;5063;50.878;4.742;2022-12-07T15:41:15;6.60;99.90
10046;DHT22;5063;50.878;4.742;2022-12-07T15:43:41;6.20;99.90
10046;DHT22;5063;50.878;4.742;2022-12-07T15:46:30;6.10;99.90
10046;DHT22;5063;50.878;4.742;2022-12-07T15:48:56;6.20;99.90
10046;DHT22;5063;50.878;4.742;2022-12-07T15:51:22;6.30;99.90
10046;DHT22;5063;50.878;4.742;2022-12-07T15:53:48;6.30;99.90
10046;DHT22;5063;50.878;4.742;2022-12-07T15:56:13;6.30;99.90
10046;DHT22;5063;50.878;4.742;2022-12-07T15:58:39;6.30;99.90
10046;DHT22;5063;50.878;4.742;2022-12-07T16:03:37;6.30;99.90
10046;DHT22;5063;50.878;4.742;2022-12-07T16:06:03;6.40;99.90
10046;DHT22;5063;50.878;4.742;2022-12-07T16:08:29;6.40;99.90
10046;DHT22;5063;50.878;4.742;2022-12-07T16:10:55;6.40;99.90
10046;DHT22;5063;50.878;4.742;2022-12-07T16:13:21;6.60;99.90
10046;DHT22;5063;50.878;4.742;2022-12-07T16:15:47;6.40;99.90
10046;DHT22;5063;50.878;4.742;2022-12-07T16:18:12;6.50;99.90
10046;DHT22;5063;50.878;4.742;2022-12-07T16:20:38;6.50;99.90
10046;DHT22;5063;50.878;4.742;2022-12-07T16:23:04;6.50;99.90
10046;DHT22;5063;50.878;4.742;2022-12-07T16:25:30;6.60;99.90
10046;DHT22;5063;50.878;4.742;2022-12-07T16:27:56;6.60;99.90
10046;DHT22;5063;50.878;4.742;2022-12-07T16:30:21;6.60;99.90
10046;DHT22;5063;50.878;4.742;2022-12-07T16:32:47;6.70;99.90
10046;DHT22;5063;50.878;4.742;2022-12-07T16:35:13;6.60;99.90
10046;DHT22;5063;50.878;4.742;2022-12-07T16:37:41;6.70;99.90
10046;DHT22;5063;50.878;4.742;2022-12-07T16:40:07;6.90;99.90
10046;DHT22;5063;50.878;4.742;2022-12-07T16:42:34;6.70;99.90
10046;DHT22;5063;50.878;4.742;2022-12-07T16:45:00;6.60;99.90
10046;DHT22;5063;50.878;4.742;2022-12-07T16:47:26;6.60;99.90
10046;DHT22;5063;50.878;4.742;2022-12-07T16:49:52;6.50;99.90
10046;DHT22;5063;50.878;4.742;2022-12-07T16:52:19;6.50;99.90
10046;DHT22;5063;50.878;4.742;2022-12-07T16:54:45;6.50;99.90
10046;DHT22;5063;50.878;4.742;2022-12-07T16:57:10;6.40;99.90
10046;DHT22;5063;50.878;4.742;2022-12-07T16:59:36;6.50;99.90
10046;DHT22;5063;50.878;4.742;2022-12-07T17:02:02;6.40;99.90
10046;DHT22;5063;50.878;4.742;2022-12-07T17:04:29;6.50;99.90
10046;DHT22;5063;50.878;4.742;2022-12-07T17:06:55;6.50;99.90
10046;DHT22;5063;50.878;4.742;2022-12-07T17:09:20;6.80;99.90
10046;DHT22;5063;50.878;4.742;2022-12-07T17:11:46;6.90;99.90
10046;DHT22;5063;50.878;4.742;2022-12-07T17:14:12;6.60;99.90
10046;DHT22;5063;50.878;4.742;2022-12-07T17:16:56;6.70;99.90
10046;DHT22;5063;50.878;4.742;2022-12-07T17:19:22;6.70;99.90
10046;DHT22;5063;50.878;4.742;2022-12-07T17:21:47;6.70;99.90
10046;DHT22;5063;50.878;4.742;2022-12-07T17:24:15;6.70;99.90
10046;DHT22;5063;50.878;4.742;2022-12-07T17:26:43;6.80;99.90
10046;DHT22;5063;50.878;4.742;2022-12-07T17:29:11;6.70;99.90
10046;DHT22;5063;50.878;4.742;2022-12-07T17:31:38;6.70;99.90
10046;DHT22;5063;50.878;4.742;2022-12-07T17:34:04;6.70;99.90
10046;DHT22;5063;50.878;4.742;2022-12-07T17:36:31;6.50;99.90
10046;DHT22;5063;50.878;4.742;2022-12-07T17:38:57;6.70;99.90
10046;DHT22;5063;50.878;4.742;2022-12-07T17:41:27;6.70;99.90
10046;DHT22;5063;50.878;4.742;2022-12-07T17:44:18;6.80;99.90
10046;DHT22;5063;50.878;4.742;2022-12-07T17:46:46;6.70;99.90
10046;DHT22;5063;50.878;4.742;2022-12-07T17:49:13;6.90;99.90
10046;DHT22;5063;50.878;4.742;2022-12-07T17:51:39;6.80;99.90
10046;DHT22;5063;50.878;4.742;2022-12-07T17:54:23;6.90;99.90
10046;DHT22;5063;50.878;4.742;2022-12-07T17:56:49;6.80;99.90
10046;DHT22;5063;50.878;4.742;2022-12-07T17:59:16;6.70;99.90
10046;DHT22;5063;50.878;4.742;2022-12-07T18:01:42;6.70;99.90
10046;DHT22;5063;50.878;4.742;2022-12-07T18:04:08;7.00;99.90
10046;DHT22;5063;50.878;4.742;2022-12-07T18:06:34;6.90;99.90
10046;DHT22;5063;50.878;4.742;2022-12-07T18:09:00;6.80;99.90
10046;DHT22;5063;50.878;4.742;2022-12-07T18:11:26;6.90;99.90
10046;DHT22;5063;50.878;4.742;2022-12-07T18:13:52;6.70;99.90
10046;DHT22;5063;50.878;4.742;2022-12-07T18:16:21;6.60;99.90
10046;DHT22;5063;50.878;4.742;2022-12-07T18:18:48;6.60;99.90
10046;DHT22;5063;50.878;4.742;2022-12-07T18:21:16;6.70;99.90
10046;DHT22;5063;50.878;4.742;2022-12-07T18:23:45;6.60;99.90
10046;DHT22;5063;50.878;4.742;2022-12-07T18:26:13;6.70;99.90
10046;DHT22;5063;50.878;4.742;2022-12-07T18:28:39;6.60;99.90
10046;DHT22;5063;50.878;4.742;2022-12-07T18:31:05;6.60;99.90
10046;DHT22;5063;50.878;4.742;2022-12-07T18:33:31;6.70;99.90
10046;DHT22;5063;50.878;4.742;2022-12-07T18:35:59;6.90;99.90
10046;DHT22;5063;50.878;4.742;2022-12-07T18:38:26;6.60;99.90
10046;DHT22;5063;50.878;4.742;2022-12-07T18:40:53;6.70;99.90